Terminal Aerodrome Forecast
Issued by NWS Brownsville, TX

Home | Current Version | Previous Version | Text Only | Print | Product List | Glossary On
Versions: 1 2 3 4 5 6 7 8 9 10 11 12 13 14 15 16 17
054
FTUS44 KBRO 221124
TAFBRO
TAF
KBRO 221124Z 2212/2312 31004KT P6SM SKC
     FM222000 09007KT P6SM SKC
     FM230200 15005KT P6SM SKC=

USA.gov is the U.S. government's official web portal to all federal, state and local government web resources and services.